Time;durP1;ratioP1;P1;durP2;ratioP2;P2;SDS_P1;SDS_P2;PMS_P1;PMS_P2;Temp;Humidity;BMP_temperature;BMP_pressure;BME280_temperature;BME280_humidity;BME280_pressure;Samples;Min_cycle;Max_cycle;Signal;HPM_P1;HPM_P2
2022/11/01 04:02:04;;;;;;;1.20;1.10;;;16.00;78.20;;;;;;5522972;22;20320;-78
2022/11/01 04:04:31;;;;;;;0.80;0.80;;;16.10;78.10;;;;;;5073880;28;20450;-78
2022/11/01 04:06:58;;;;;;;0.70;0.70;;;16.20;76.90;;;;;;5073873;28;20452;-78
2022/11/01 04:09:24;;;;;;;0.80;0.80;;;16.10;77.70;;;;;;5074105;28;20442;-78
2022/11/01 04:11:51;;;;;;;1.00;0.80;;;16.00;77.30;;;;;;5073817;28;20472;-78
2022/11/01 04:22:43;;;;;;;0.97;0.90;;;16.20;77.10;;;;;;5012097;28;20478;-78
2022/11/01 04:25:10;;;;;;;0.90;0.90;;;16.20;77.10;;;;;;5058748;28;20457;-78
2022/11/01 04:27:36;;;;;;;1.00;0.80;;;16.20;77.10;;;;;;5073788;28;20446;-78
2022/11/01 04:30:04;;;;;;;0.83;0.80;;;16.10;77.40;;;;;;5074007;28;20441;-78
2022/11/01 04:32:32;;;;;;;0.70;0.70;;;16.10;77.30;;;;;;5073807;28;20470;-78
2022/11/01 04:34:58;;;;;;;0.73;0.73;;;16.10;78.10;;;;;;5073770;28;20477;-78
2022/11/01 04:37:25;;;;;;;0.70;0.70;;;16.20;77.50;;;;;;5073617;28;20932;-78
2022/11/01 04:39:52;;;;;;;0.83;0.83;;;16.30;76.90;;;;;;5074884;28;20453;-78
2022/11/01 04:42:18;;;;;;;1.00;0.83;;;16.40;76.70;;;;;;5073724;28;20469;-78
2022/11/01 04:44:46;;;;;;;1.00;1.00;;;16.40;77.20;;;;;;5073598;28;20464;-78
2022/11/01 04:47:13;;;;;;;0.73;0.73;;;16.40;77.20;;;;;;5073666;28;20820;-78
2022/11/01 04:49:41;;;;;;;0.90;0.90;;;16.30;77.20;;;;;;5073878;28;20448;-78
2022/11/01 04:52:08;;;;;;;0.97;0.97;;;16.30;77.60;;;;;;5074720;28;20478;-78
2022/11/01 04:54:35;;;;;;;1.53;0.90;;;16.40;77.30;;;;;;5077376;28;20442;-78
2022/11/01 04:57:01;;;;;;;0.80;0.80;;;16.50;77.10;;;;;;5077056;28;20441;-78
2022/11/01 04:59:28;;;;;;;0.70;0.70;;;16.40;77.30;;;;;;5077386;28;20453;-78
2022/11/01 05:01:55;;;;;;;0.80;0.80;;;16.40;77.50;;;;;;5077183;28;20481;-78
2022/11/01 05:04:21;;;;;;;0.90;0.70;;;16.40;77.50;;;;;;5077658;28;20449;-78
2022/11/01 05:06:49;;;;;;;1.00;0.87;;;16.40;77.90;;;;;;5077573;28;20437;-78
2022/11/01 05:09:16;;;;;;;1.13;0.90;;;16.40;77.50;;;;;;5077229;28;20449;-78
2022/11/01 05:11:43;;;;;;;0.60;0.60;;;16.30;77.80;;;;;;5077418;28;20469;-78
2022/11/01 05:14:09;;;;;;;0.70;0.70;;;16.30;77.80;;;;;;5077217;28;20944;-78
2022/11/01 05:16:36;;;;;;;0.80;0.80;;;16.30;78.20;;;;;;5077653;28;20488;-78
2022/11/01 05:19:03;;;;;;;0.90;0.80;;;16.30;78.30;;;;;;5077295;28;20445;-79
2022/11/01 05:21:30;;;;;;;0.70;0.70;;;16.40;78.00;;;;;;5077608;28;20468;-81
2022/11/01 05:23:58;;;;;;;0.70;0.70;;;16.40;80.20;;;;;;5081127;28;20446;-80
2022/11/01 05:26:26;;;;;;;0.63;0.63;;;16.50;79.40;;;;;;5079545;28;20449;-79
2022/11/01 05:28:53;;;;;;;0.60;0.60;;;16.60;78.50;;;;;;5076807;28;20456;-78
2022/11/01 05:31:19;;;;;;;0.70;0.70;;;16.50;78.80;;;;;;5076645;28;20476;-78
2022/11/01 05:33:46;;;;;;;0.83;0.83;;;16.60;78.60;;;;;;5076639;28;20446;-78
2022/11/01 05:36:13;;;;;;;0.70;0.70;;;16.60;78.80;;;;;;5076123;28;20850;-78
2022/11/01 05:38:40;;;;;;;0.60;0.60;;;16.50;79.10;;;;;;5076553;28;20448;-78
2022/11/01 05:41:08;;;;;;;0.70;0.70;;;16.50;79.70;;;;;;5076443;28;20496;-78
2022/11/01 05:43:34;;;;;;;0.70;0.67;;;16.60;80.10;;;;;;5076399;28;20442;-78
2022/11/01 05:46:04;;;;;;;0.70;0.63;;;16.60;80.10;;;;;;5076693;28;20452;-78
2022/11/01 05:48:30;;;;;;;0.60;0.60;;;16.60;80.50;;;;;;5076168;28;20510;-78
2022/11/01 05:50:57;;;;;;;0.70;0.70;;;16.50;81.10;;;;;;5076198;28;20488;-78
2022/11/01 05:53:24;;;;;;;0.60;0.60;;;16.30;81.90;;;;;;5076128;28;20453;-78
2022/11/01 05:55:53;;;;;;;0.70;0.70;;;16.30;82.40;;;;;;5080350;28;20485;-76
2022/11/01 05:58:21;;;;;;;0.70;0.70;;;16.40;82.60;;;;;;5075357;28;20925;-75
2022/11/01 06:00:48;;;;;;;0.70;0.70;;;16.40;82.60;;;;;;5077553;28;20466;-77
2022/11/01 06:03:14;;;;;;;0.60;0.60;;;16.40;82.70;;;;;;5076083;28;20445;-76
2022/11/01 06:05:41;;;;;;;0.60;0.60;;;16.40;83.30;;;;;;5079422;28;20441;-76
2022/11/01 06:08:09;;;;;;;0.70;0.60;;;16.30;84.00;;;;;;5079630;28;20461;-77
2022/11/01 06:10:35;;;;;;;0.60;0.60;;;16.20;84.30;;;;;;5078173;28;20449;-76
2022/11/01 06:13:02;;;;;;;0.70;0.70;;;16.40;84.00;;;;;;5078477;28;20442;-77
2022/11/01 06:15:30;;;;;;;0.70;0.60;;;16.40;83.80;;;;;;5079239;28;20485;-77
2022/11/01 06:17:58;;;;;;;0.60;0.60;;;16.40;84.20;;;;;;5077577;28;20446;-77
2022/11/01 06:20:25;;;;;;;0.60;0.57;;;16.60;83.60;;;;;;5077767;28;20461;-77
2022/11/01 06:22:52;;;;;;;0.50;0.50;;;16.70;83.40;;;;;;5078879;28;20449;-77
2022/11/01 06:25:19;;;;;;;0.60;0.60;;;16.70;83.40;;;;;;5077598;28;20450;-77
2022/11/01 06:27:45;;;;;;;0.70;0.60;;;16.90;83.20;;;;;;5076933;28;20449;-76
2022/11/01 06:30:12;;;;;;;0.60;0.60;;;16.90;83.40;;;;;;5075641;28;20847;-76
2022/11/01 06:32:40;;;;;;;0.60;0.60;;;16.90;83.20;;;;;;5075829;28;20485;-76
2022/11/01 06:35:08;;;;;;;0.70;0.70;;;16.80;83.40;;;;;;5076857;28;20449;-76
2022/11/01 06:37:34;;;;;;;0.80;0.60;;;16.80;83.70;;;;;;5076209;28;20815;-75
2022/11/01 06:40:01;;;;;;;0.90;0.60;;;16.60;84.10;;;;;;5076013;28;20450;-76
2022/11/01 06:42:28;;;;;;;0.60;0.60;;;16.40;84.30;;;;;;5076153;28;20470;-75
2022/11/01 06:44:54;;;;;;;0.70;0.57;;;16.40;84.90;;;;;;5075181;28;20452;-76
2022/11/01 06:47:21;;;;;;;0.60;0.50;;;16.00;85.70;;;;;;5075578;28;20438;-75
2022/11/01 06:49:49;;;;;;;0.63;0.63;;;16.00;86.30;;;;;;5075395;28;20454;-76
2022/11/01 06:52:16;;;;;;;0.60;0.60;;;16.00;86.30;;;;;;5075175;28;20470;-79
2022/11/01 06:54:43;;;;;;;0.60;0.60;;;15.90;86.90;;;;;;5074781;28;20551;-80
2022/11/01 06:57:10;;;;;;;0.80;0.60;;;16.00;87.40;;;;;;5074853;28;20477;-77
2022/11/01 06:59:36;;;;;;;0.70;0.60;;;16.10;87.10;;;;;;5074328;28;20449;-77
2022/11/01 07:02:03;;;;;;;0.60;0.60;;;16.20;86.10;;;;;;5073988;28;20481;-77
2022/11/01 07:04:30;;;;;;;0.70;0.60;;;16.30;85.80;;;;;;5074362;28;20446;-77
2022/11/01 07:06:58;;;;;;;0.60;0.60;;;16.40;85.30;;;;;;5074292;28;20473;-77
2022/11/01 07:09:25;;;;;;;0.60;0.60;;;16.50;84.80;;;;;;5074185;28;20454;-77
2022/11/01 07:11:52;;;;;;;0.60;0.60;;;16.50;84.80;;;;;;5074059;28;20476;-77
2022/11/01 07:14:18;;;;;;;0.60;0.50;;;16.20;85.20;;;;;;5073622;28;20442;-78
2022/11/01 07:16:45;;;;;;;0.90;0.60;;;16.20;85.70;;;;;;5074138;28;20474;-78
2022/11/01 07:19:12;;;;;;;0.60;0.50;;;16.20;85.40;;;;;;5075057;28;20450;-78
2022/11/01 07:21:38;;;;;;;0.70;0.50;;;16.30;85.70;;;;;;5073955;28;20473;-77
2022/11/01 07:24:07;;;;;;;0.60;0.50;;;16.30;85.40;;;;;;5073966;28;20442;-77
2022/11/01 07:26:33;;;;;;;0.53;0.53;;;16.50;85.00;;;;;;5074012;28;20442;-77
2022/11/01 07:29:00;;;;;;;0.60;0.60;;;16.60;84.80;;;;;;5074093;28;20477;-77
2022/11/01 07:31:27;;;;;;;0.60;0.60;;;16.60;84.50;;;;;;5073469;28;21025;-77
2022/11/01 07:33:54;;;;;;;0.50;0.50;;;16.60;84.60;;;;;;5073817;28;20450;-76
2022/11/01 07:36:20;;;;;;;0.70;0.60;;;16.70;84.30;;;;;;5073799;28;20477;-77
2022/11/01 07:38:47;;;;;;;0.50;0.50;;;16.60;84.30;;;;;;5073782;28;20442;-77
2022/11/01 07:41:15;;;;;;;0.60;0.60;;;16.60;84.70;;;;;;5073543;28;20461;-77
2022/11/01 07:43:42;;;;;;;0.60;0.50;;;16.60;84.50;;;;;;5073699;28;20457;-78
2022/11/01 07:46:10;;;;;;;0.50;0.50;;;16.50;84.70;;;;;;5074359;28;20971;-78
2022/11/01 07:48:38;;;;;;;0.50;0.50;;;16.40;84.90;;;;;;5074676;28;20457;-78
2022/11/01 07:51:06;;;;;;;0.60;0.50;;;16.50;84.80;;;;;;5074143;28;20490;-78
2022/11/01 07:53:33;;;;;;;0.60;0.60;;;16.50;85.00;;;;;;5073940;28;20450;-78
2022/11/01 07:56:01;;;;;;;0.60;0.50;;;16.50;85.00;;;;;;5073163;28;21011;-78
2022/11/01 07:58:29;;;;;;;0.50;0.50;;;16.60;84.90;;;;;;5073716;28;20449;-78
2022/11/01 08:00:56;;;;;;;0.60;0.60;;;16.70;84.90;;;;;;5073262;28;21014;-78
2022/11/01 08:03:23;;;;;;;0.50;0.50;;;16.60;84.10;;;;;;5074547;28;20437;-79
2022/11/01 08:05:49;;;;;;;0.50;0.50;;;16.70;84.20;;;;;;5075216;28;20469;-79
2022/11/01 08:08:16;;;;;;;0.60;0.60;;;16.60;84.10;;;;;;5074587;28;20453;-79
2022/11/01 08:10:43;;;;;;;0.57;0.50;;;16.60;84.60;;;;;;5073711;28;20438;-78
2022/11/01 08:13:15;;;;;;;0.50;0.50;;;16.70;83.90;;;;;;5075511;28;20449;-79
2022/11/01 08:15:43;;;;;;;0.60;0.50;;;16.60;84.50;;;;;;5074622;28;20441;-78
2022/11/01 08:18:10;;;;;;;0.67;0.50;;;16.60;83.80;;;;;;5076313;28;20484;-79
2022/11/01 08:20:37;;;;;;;0.60;0.50;;;16.60;84.10;;;;;;5076312;28;20450;-79
2022/11/01 08:23:04;;;;;;;0.50;0.50;;;16.70;84.10;;;;;;5074980;28;20446;-78
2022/11/01 08:25:31;;;;;;;0.50;0.50;;;16.80;83.00;;;;;;5073451;28;20483;-78
2022/11/01 08:28:01;;;;;;;0.50;0.50;;;16.90;82.80;;;;;;5077565;28;20454;-78
2022/11/01 08:30:28;;;;;;;0.60;0.60;;;17.00;82.40;;;;;;5077477;28;20430;-78
2022/11/01 08:32:59;;;;;;;0.60;0.60;;;17.10;81.90;;;;;;5077088;28;20462;-78
2022/11/01 08:35:26;;;;;;;0.60;0.60;;;17.00;82.50;;;;;;5077452;28;20488;-78
2022/11/01 08:37:54;;;;;;;0.50;0.50;;;17.10;81.80;;;;;;5078692;28;20487;-79
2022/11/01 08:40:21;;;;;;;0.60;0.60;;;17.20;81.00;;;;;;5077150;28;20449;-79
2022/11/01 08:42:48;;;;;;;0.60;0.50;;;17.20;81.10;;;;;;5078847;28;20711;-79
2022/11/01 08:45:16;;;;;;;0.60;0.60;;;17.40;81.00;;;;;;5078093;28;20449;-79
2022/11/01 08:47:43;;;;;;;1.20;0.60;;;17.40;81.20;;;;;;5078839;28;20441;-79
2022/11/01 08:50:13;;;;;;;0.60;0.50;;;17.60;80.70;;;;;;5078457;28;20534;-79
2022/11/01 08:52:41;;;;;;;0.50;0.50;;;17.60;80.10;;;;;;5079125;28;20465;-79
2022/11/01 08:55:09;;;;;;;1.13;0.50;;;17.60;80.90;;;;;;5079877;28;20449;-80
2022/11/01 08:57:36;;;;;;;0.60;0.50;;;17.80;80.30;;;;;;5079239;28;20555;-79
2022/11/01 09:00:05;;;;;;;0.53;0.50;;;17.70;78.90;;;;;;5079692;28;20457;-80
2022/11/01 09:02:32;;;;;;;0.50;0.50;;;17.60;78.80;;;;;;5079279;28;20473;-80
2022/11/01 09:05:01;;;;;;;0.53;0.50;;;17.60;79.20;;;;;;5082139;28;20944;-80
2022/11/01 09:07:29;;;;;;;0.60;0.50;;;17.70;79.20;;;;;;5079252;28;20491;-79
2022/11/01 09:09:56;;;;;;;0.50;0.50;;;17.70;78.80;;;;;;5079719;28;20444;-80
2022/11/01 09:12:23;;;;;;;0.57;0.50;;;17.70;78.70;;;;;;5079279;28;21003;-74
2022/11/01 09:14:49;;;;;;;0.60;0.50;;;17.70;78.50;;;;;;5078706;28;20472;-80
2022/11/01 09:17:16;;;;;;;0.50;0.50;;;17.60;78.70;;;;;;5080944;28;20547;-82
2022/11/01 09:19:43;;;;;;;0.60;0.60;;;17.60;80.90;;;;;;5087644;28;20479;-82
2022/11/01 09:22:10;;;;;;;0.60;0.50;;;17.70;79.20;;;;;;5085075;28;20819;-79
2022/11/01 09:24:38;;;;;;;0.60;0.50;;;17.70;78.60;;;;;;5081975;28;20441;-79
2022/11/01 09:27:07;;;;;;;0.60;0.60;;;17.60;78.50;;;;;;5080840;28;20486;-80
2022/11/01 09:29:34;;;;;;;0.50;0.50;;;17.70;79.00;;;;;;5081574;28;20951;-80
2022/11/01 09:32:01;;;;;;;0.63;0.60;;;17.70;78.70;;;;;;5082963;28;20462;-79
2022/11/01 09:34:27;;;;;;;0.63;0.60;;;17.80;79.00;;;;;;5077764;28;20453;-79
2022/11/01 09:36:54;;;;;;;0.60;0.50;;;17.90;78.50;;;;;;5080252;28;20481;-80
2022/11/01 09:39:21;;;;;;;0.57;0.50;;;18.00;78.60;;;;;;5078243;28;20449;-79
2022/11/01 09:41:52;;;;;;;0.57;0.50;;;18.00;78.30;;;;;;5079005;28;20515;-78
2022/11/01 09:44:22;;;;;;;0.50;0.50;;;18.10;78.10;;;;;;5081829;28;20445;-80
2022/11/01 09:46:54;;;;;;;0.50;0.50;;;18.10;77.60;;;;;;5087151;28;20434;-81
2022/11/01 09:49:25;;;;;;;0.53;0.50;;;18.30;77.60;;;;;;5086996;28;20775;-80
2022/11/01 09:51:52;;;;;;;0.60;0.50;;;18.40;76.30;;;;;;5082796;28;20482;-80
2022/11/01 09:54:21;;;;;;;0.60;0.60;;;18.50;76.40;;;;;;5085000;28;20454;-80
2022/11/01 09:57:00;;;;;;;0.50;0.50;;;18.50;75.50;;;;;;5082888;28;20477;-78
2022/11/01 09:59:34;;;;;;;0.70;0.70;;;18.60;75.50;;;;;;5078100;28;20434;-80
2022/11/01 10:02:17;;;;;;;0.50;0.50;;;18.70;75.50;;;;;;5080504;28;20492;-80
2022/11/01 10:05:03;;;;;;;0.60;0.50;;;18.80;74.50;;;;;;5081867;28;20430;-82
2022/11/01 10:07:40;;;;;;;0.50;0.50;;;18.90;73.90;;;;;;5081221;28;20912;-81
2022/11/01 10:10:18;;;;;;;0.57;0.57;;;18.80;74.40;;;;;;5080855;28;20448;-80
2022/11/01 10:13:01;;;;;;;0.50;0.50;;;19.10;73.50;;;;;;5079234;28;20466;-82
2022/11/01 10:15:43;;;;;;;0.60;0.50;;;19.20;73.10;;;;;;5078115;28;20912;-80
2022/11/01 10:18:52;;;;;;;0.50;0.50;;;19.20;73.00;;;;;;5082290;28;20470;-81
2022/11/01 10:21:22;;;;;;;1.20;0.50;;;19.20;73.40;;;;;;5047097;28;20477;-82
2022/11/01 10:23:52;;;;;;;0.50;0.50;;;19.30;72.30;;;;;;5076790;28;20616;-81
2022/11/01 10:26:23;;;;;;;0.60;0.60;;;19.50;72.10;;;;;;5081258;28;20450;-80
2022/11/01 10:28:59;;;;;;;0.60;0.50;;;19.50;72.00;;;;;;5080664;28;20926;-80
2022/11/01 10:31:27;;;;;;;0.60;0.50;;;19.60;71.30;;;;;;5077526;28;20481;-79
2022/11/01 10:33:59;;;;;;;0.50;0.50;;;19.50;71.30;;;;;;5082610;28;20971;-79
2022/11/01 10:36:30;;;;;;;0.50;0.50;;;19.30;72.30;;;;;;5082610;28;20422;-79
2022/11/01 10:39:06;;;;;;;0.50;0.50;;;19.30;71.70;;;;;;5075514;28;20422;-79
2022/11/01 10:41:39;;;;;;;0.50;0.50;;;19.30;71.20;;;;;;5081059;28;20821;-79
2022/11/01 10:44:16;;;;;;;0.50;0.50;;;19.30;70.90;;;;;;5077900;28;20441;-79
2022/11/01 10:46:46;;;;;;;0.57;0.50;;;19.20;71.10;;;;;;5078102;28;20430;-79
2022/11/01 10:49:22;;;;;;;0.60;0.50;;;19.00;71.70;;;;;;5075586;28;20473;-79
2022/11/01 10:51:52;;;;;;;0.53;0.50;;;19.10;71.60;;;;;;5075158;28;20461;-78
2022/11/01 10:54:23;;;;;;;0.60;0.60;;;18.90;71.10;;;;;;5074940;28;20442;-78
2022/11/01 10:56:52;;;;;;;0.50;0.50;;;18.80;71.10;;;;;;5074808;28;20988;-78
2022/11/01 10:59:24;;;;;;;0.60;0.50;;;18.70;70.50;;;;;;5074256;28;20453;-79
2022/11/01 11:01:53;;;;;;;0.60;0.60;;;18.80;71.00;;;;;;5076663;28;20481;-80
2022/11/01 11:04:22;;;;;;;0.50;0.50;;;18.70;71.10;;;;;;5075931;28;20446;-79
2022/11/01 11:06:50;;;;;;;0.60;0.50;;;18.80;70.70;;;;;;5075572;28;20448;-78
2022/11/01 11:09:24;;;;;;;0.60;0.60;;;19.00;70.60;;;;;;5074643;28;20445;-79
2022/11/01 11:11:53;;;;;;;0.50;0.50;;;19.10;70.30;;;;;;5076428;28;20848;-80
2022/11/01 11:14:21;;;;;;;0.70;0.53;;;19.20;70.30;;;;;;5080583;28;20446;-80
2022/11/01 11:16:51;;;;;;;0.53;0.53;;;19.10;69.50;;;;;;5081415;28;20477;-79
2022/11/01 11:19:24;;;;;;;0.57;0.50;;;19.00;69.50;;;;;;5078821;28;20450;-79
2022/11/01 11:21:53;;;;;;;0.60;0.60;;;18.90;71.20;;;;;;5079773;28;20532;-79
2022/11/01 11:24:22;;;;;;;0.57;0.53;;;18.90;70.00;;;;;;5081283;28;20445;-79
2022/11/01 11:26:51;;;;;;;0.60;0.60;;;18.90;70.80;;;;;;5080050;28;20828;-80
2022/11/01 11:29:34;;;;;;;1.17;0.50;;;18.90;70.70;;;;;;5076108;28;20453;-79
2022/11/01 11:32:02;;;;;;;0.60;0.60;;;18.90;70.30;;;;;;5074032;28;20473;-78
2022/11/01 11:34:30;;;;;;;0.60;0.60;;;18.90;70.20;;;;;;5073957;28;20495;-78
2022/11/01 11:36:58;;;;;;;0.50;0.50;;;19.00;69.70;;;;;;5073427;28;20996;-78
2022/11/01 11:39:26;;;;;;;0.60;0.60;;;19.20;69.30;;;;;;5073856;28;20452;-78
2022/11/01 11:41:53;;;;;;;0.50;0.50;;;19.30;69.00;;;;;;5073629;28;20465;-78
2022/11/01 11:44:40;;;;;;;0.60;0.60;;;19.20;68.50;;;;;;5073665;28;20445;-78
2022/11/01 11:47:19;;;;;;;0.50;0.50;;;19.00;68.20;;;;;;5073336;28;20897;-78
2022/11/01 11:49:47;;;;;;;0.60;0.50;;;18.90;68.50;;;;;;5073591;28;20433;-77
2022/11/01 11:52:19;;;;;;;0.63;0.63;;;18.90;68.90;;;;;;5073151;28;20977;-78
2022/11/01 11:54:46;;;;;;;0.60;0.60;;;18.80;68.90;;;;;;5073527;28;20481;-77
2022/11/01 11:57:18;;;;;;;0.60;0.50;;;18.80;69.60;;;;;;5073016;28;20952;-78
2022/11/01 11:59:52;;;;;;;0.60;0.50;;;18.80;69.80;;;;;;5073468;28;20430;-78
2022/11/01 12:02:23;;;;;;;0.80;0.80;;;18.90;69.40;;;;;;5072715;28;20481;-78
2022/11/01 12:04:55;;;;;;;2.77;2.67;;;19.00;69.80;;;;;;5073390;28;20441;-77
2022/11/01 12:07:30;;;;;;;0.90;0.90;;;19.10;69.80;;;;;;5073433;28;20425;-78
2022/11/01 12:10:01;;;;;;;2.40;2.30;;;19.10;69.70;;;;;;5073321;28;20433;-78
2022/11/01 12:12:30;;;;;;;0.60;0.60;;;19.20;68.90;;;;;;5073257;28;20565;-77
2022/11/01 12:15:00;;;;;;;0.60;0.60;;;19.20;69.10;;;;;;5073279;28;20473;-78
2022/11/01 12:17:33;;;;;;;0.60;0.50;;;19.20;69.50;;;;;;5073233;28;20552;-78
2022/11/01 12:20:08;;;;;;;0.60;0.50;;;19.10;69.60;;;;;;5072923;28;20913;-77
2022/11/01 12:22:37;;;;;;;0.50;0.50;;;19.00;69.70;;;;;;5073126;28;20871;-78
2022/11/01 12:25:07;;;;;;;0.60;0.50;;;19.20;69.80;;;;;;5073126;28;20442;-78
2022/11/01 12:27:35;;;;;;;0.50;0.50;;;19.20;69.50;;;;;;5073113;28;20465;-78
2022/11/01 12:30:07;;;;;;;0.60;0.60;;;19.30;69.20;;;;;;5073166;28;20446;-77
2022/11/01 12:32:43;;;;;;;0.77;0.77;;;19.30;68.90;;;;;;5073056;28;20470;-78
2022/11/01 12:35:20;;;;;;;0.60;0.60;;;19.40;69.30;;;;;;5073154;28;20438;-78
2022/11/01 12:38:09;;;;;;;0.67;0.67;;;19.80;68.60;;;;;;5073252;28;20830;-78
2022/11/01 12:40:37;;;;;;;0.60;0.60;;;20.30;67.00;;;;;;5075166;28;20461;-80
2022/11/01 12:43:14;;;;;;;0.77;0.60;;;21.10;65.20;;;;;;5076468;28;20441;-80
2022/11/01 12:45:49;;;;;;;0.60;0.50;;;21.50;64.00;;;;;;5075579;28;20426;-80
2022/11/01 12:48:22;;;;;;;0.60;0.57;;;21.10;64.40;;;;;;5075629;28;20989;-79
2022/11/01 12:50:52;;;;;;;0.70;0.70;;;20.90;64.80;;;;;;5073701;28;20500;-77
2022/11/01 12:53:23;;;;;;;0.57;0.53;;;20.90;65.10;;;;;;5072859;28;20442;-78
2022/11/01 12:55:50;;;;;;;0.60;0.60;;;21.30;63.40;;;;;;5072954;28;20430;-77
2022/11/01 12:58:19;;;;;;;0.60;0.60;;;21.90;62.00;;;;;;5073064;28;20482;-78
2022/11/01 13:01:00;;;;;;;0.60;0.60;;;22.90;59.60;;;;;;5074666;28;20541;-77
2022/11/01 13:03:37;;;;;;;0.70;0.67;;;24.20;57.30;;;;;;5075321;28;20465;-77
2022/11/01 13:06:15;;;;;;;0.60;0.60;;;25.60;53.60;;;;;;5076301;28;20795;-77
2022/11/01 13:08:48;;;;;;;0.67;0.63;;;25.70;52.40;;;;;;5076141;28;20428;-77
2022/11/01 13:11:26;;;;;;;1.07;0.70;;;25.90;53.00;;;;;;5074329;28;20473;-78
2022/11/01 13:14:05;;;;;;;0.80;0.60;;;26.50;51.20;;;;;;5077402;28;20429;-78
2022/11/01 13:16:39;;;;;;;0.80;0.60;;;26.50;51.00;;;;;;5081974;28;21043;-79
2022/11/01 13:19:16;;;;;;;0.60;0.60;;;26.50;51.20;;;;;;5081756;28;20465;-79
2022/11/01 13:21:49;;;;;;;0.60;0.60;;;26.60;51.40;;;;;;5083148;28;20469;-79
2022/11/01 13:24:23;;;;;;;0.57;0.57;;;27.60;50.00;;;;;;5084467;28;20425;-80
2022/11/01 13:26:55;;;;;;;0.60;0.57;;;29.00;46.60;;;;;;5083490;28;20433;-79
2022/11/01 13:29:33;;;;;;;1.13;0.60;;;28.80;47.10;;;;;;5085099;28;20507;-79
2022/11/01 13:32:09;;;;;;;0.60;0.57;;;28.50;47.50;;;;;;5083566;28;20490;-79
2022/11/01 13:34:45;;;;;;;0.60;0.60;;;28.00;47.80;;;;;;5084050;28;20465;-79
2022/11/01 13:37:25;;;;;;;0.60;0.60;;;27.40;49.00;;;;;;5084671;28;20437;-79
2022/11/01 13:40:03;;;;;;;0.60;0.60;;;27.00;50.00;;;;;;5084113;28;20976;-79
2022/11/01 13:42:36;;;;;;;0.70;0.60;;;26.60;50.50;;;;;;5083539;28;20457;-79
2022/11/01 13:45:23;;;;;;;0.60;0.60;;;26.10;51.40;;;;;;5081370;28;20438;-77
2022/11/01 13:47:56;;;;;;;0.50;0.50;;;25.50;52.50;;;;;;5078622;28;20440;-77
2022/11/01 13:50:59;;;;;;;0.60;0.60;;;26.30;51.30;;;;;;5077843;28;20429;-78
2022/11/01 13:53:31;;;;;;;0.70;0.67;;;27.30;49.80;;;;;;5078086;28;20433;-78
2022/11/01 13:56:04;;;;;;;0.60;0.60;;;29.40;46.60;;;;;;5079648;28;20426;-79
2022/11/01 13:58:32;;;;;;;0.70;0.60;;;31.30;43.60;;;;;;5078168;28;20998;-77
2022/11/01 14:01:27;;;;;;;0.50;0.50;;;31.70;41.80;;;;;;5078829;28;20477;-77
2022/11/01 14:04:36;;;;;;;0.60;0.50;;;32.50;40.90;;;;;;5079728;28;20453;-78
2022/11/01 14:07:14;;;;;;;0.60;0.50;;;33.40;40.10;;;;;;5081837;28;20456;-78
2022/11/01 14:09:46;;;;;;;0.60;0.57;;;33.30;39.40;;;;;;5079981;28;20429;-77
2022/11/01 14:12:37;;;;;;;0.60;0.60;;;32.50;39.60;;;;;;5080822;28;20480;-79
2022/11/01 14:15:26;;;;;;;0.50;0.50;;;31.90;42.10;;;;;;5082221;28;20445;-79
2022/11/01 14:18:09;;;;;;;0.50;0.50;;;32.10;42.00;;;;;;5077676;28;20522;-80
2022/11/01 14:20:45;;;;;;;0.67;0.67;;;31.70;42.00;;;;;;5082947;28;20454;-79
2022/11/01 14:23:54;;;;;;;0.60;0.60;;;30.90;44.30;;;;;;5082508;28;20449;-79
2022/11/01 14:27:06;;;;;;;0.80;0.80;;;29.30;47.10;;;;;;5080869;28;20449;-79
2022/11/01 14:29:35;;;;;;;0.90;0.63;;;28.60;48.40;;;;;;5076128;28;20454;-79
2022/11/01 14:32:03;;;;;;;0.60;0.60;;;28.00;49.50;;;;;;5075074;28;20474;-79
2022/11/01 14:34:34;;;;;;;0.60;0.60;;;27.60;50.00;;;;;;5075370;28;20477;-79
2022/11/01 14:37:22;;;;;;;0.60;0.50;;;27.10;50.90;;;;;;5075100;28;20446;-79
2022/11/01 14:40:03;;;;;;;0.60;0.60;;;26.60;51.90;;;;;;5075161;28;20921;-79
2022/11/01 14:42:42;;;;;;;0.60;0.60;;;26.00;53.20;;;;;;5076003;28;20476;-79
2022/11/01 14:45:35;;;;;;;0.70;0.60;;;25.60;53.90;;;;;;5075742;28;20552;-79
2022/11/01 14:48:09;;;;;;;0.70;0.70;;;24.70;56.20;;;;;;5060598;28;20450;-78
2022/11/01 14:50:45;;;;;;;0.60;0.60;;;24.10;57.10;;;;;;5074352;28;20968;-79
2022/11/01 14:53:19;;;;;;;0.80;0.70;;;23.90;57.70;;;;;;5074640;28;20425;-79
2022/11/01 14:55:46;;;;;;;0.60;0.60;;;23.40;58.80;;;;;;5074572;28;20798;-79
2022/11/01 14:58:21;;;;;;;0.70;0.60;;;23.00;59.80;;;;;;5074076;28;21019;-79
2022/11/01 15:00:49;;;;;;;0.60;0.60;;;22.50;60.90;;;;;;5073877;28;21014;-79
2022/11/01 15:03:16;;;;;;;0.60;0.50;;;22.20;61.60;;;;;;5074456;28;20430;-79
2022/11/01 15:05:45;;;;;;;0.83;0.70;;;21.80;62.50;;;;;;5074407;28;20446;-79
2022/11/01 15:08:29;;;;;;;0.90;0.80;;;21.60;63.70;;;;;;5074308;28;20847;-79
2022/11/01 15:10:59;;;;;;;0.60;0.60;;;21.30;64.40;;;;;;5074304;28;20473;-79
2022/11/01 15:13:27;;;;;;;0.70;0.70;;;21.00;65.20;;;;;;5074179;28;20452;-79
2022/11/01 15:16:14;;;;;;;0.70;0.67;;;20.30;67.30;;;;;;5073871;28;20813;-78
2022/11/01 15:18:46;;;;;;;0.70;0.70;;;20.30;67.40;;;;;;5075252;28;20461;-79
2022/11/01 15:21:17;;;;;;;0.70;0.70;;;20.10;67.80;;;;;;5075129;28;20465;-82
2022/11/01 15:23:49;;;;;;;0.60;0.60;;;20.00;68.20;;;;;;5074625;28;20909;-82
2022/11/01 15:26:18;;;;;;;0.70;0.70;;;19.80;68.60;;;;;;5074899;28;20422;-82
2022/11/01 15:28:49;;;;;;;0.70;0.70;;;19.80;68.70;;;;;;5075538;28;20442;-81
2022/11/01 15:31:16;;;;;;;0.50;0.50;;;19.80;68.70;;;;;;5075853;28;20469;-82
2022/11/01 15:33:53;;;;;;;0.80;0.80;;;19.80;69.00;;;;;;5075698;28;20457;-82
2022/11/01 15:36:22;;;;;;;1.43;0.80;;;19.70;69.20;;;;;;5075015;28;20453;-82
2022/11/01 15:38:52;;;;;;;0.67;0.67;;;19.70;69.30;;;;;;5075543;28;20481;-81
2022/11/01 15:41:20;;;;;;;0.60;0.60;;;19.40;69.50;;;;;;5075713;28;20466;-82
2022/11/01 15:43:51;;;;;;;0.70;0.70;;;19.40;69.70;;;;;;5075407;28;20469;-81
2022/11/01 15:46:18;;;;;;;0.90;0.70;;;19.40;69.60;;;;;;5074908;28;20437;-82
2022/11/01 15:48:45;;;;;;;0.70;0.60;;;19.40;69.60;;;;;;5075469;28;20438;-82
2022/11/01 15:51:21;;;;;;;0.60;0.60;;;19.40;69.50;;;;;;5075584;28;20465;-81
2022/11/01 15:53:52;;;;;;;0.60;0.60;;;19.40;69.80;;;;;;5075715;28;20430;-82
2022/11/01 15:56:24;;;;;;;0.73;0.67;;;19.30;70.00;;;;;;5076924;28;20426;-81
2022/11/01 15:58:55;;;;;;;0.83;0.70;;;19.20;70.30;;;;;;5076786;28;20470;-78
2022/11/01 16:01:23;;;;;;;0.90;0.70;;;19.20;70.40;;;;;;5074366;28;21041;-79
2022/11/01 16:03:56;;;;;;;0.60;0.60;;;19.10;70.70;;;;;;5073604;28;20445;-78
2022/11/01 16:06:26;;;;;;;0.60;0.60;;;18.90;71.10;;;;;;5076531;28;20423;-79
2022/11/01 16:08:57;;;;;;;0.80;0.70;;;18.90;71.20;;;;;;5075351;28;20438;-78
2022/11/01 16:11:27;;;;;;;0.67;0.67;;;18.80;71.30;;;;;;5073030;28;20972;-78
2022/11/01 16:14:00;;;;;;;0.70;0.70;;;18.80;71.50;;;;;;5074670;28;20446;-76
2022/11/01 16:16:26;;;;;;;0.80;0.80;;;18.70;71.70;;;;;;5073360;28;20434;-74
2022/11/01 16:18:54;;;;;;;0.70;0.60;;;18.70;71.80;;;;;;5073163;28;20485;-74
2022/11/01 16:21:28;;;;;;;0.70;0.70;;;18.60;72.00;;;;;;5073270;28;21034;-73
2022/11/01 16:24:00;;;;;;;0.70;0.70;;;18.50;72.10;;;;;;5073272;28;20434;-75
2022/11/01 16:26:27;;;;;;;0.63;0.60;;;18.50;72.30;;;;;;5073343;28;20453;-75
2022/11/01 16:28:54;;;;;;;0.77;0.77;;;18.40;72.50;;;;;;5073160;28;20448;-75
2022/11/01 16:31:23;;;;;;;0.70;0.70;;;18.30;72.60;;;;;;5073355;28;20883;-73
2022/11/01 16:33:50;;;;;;;0.90;0.90;;;18.20;72.90;;;;;;5073084;28;20449;-75
2022/11/01 16:36:37;;;;;;;0.60;0.60;;;18.10;73.00;;;;;;5073074;28;20453;-73
2022/11/01 16:39:27;;;;;;;0.63;0.63;;;18.00;73.30;;;;;;5073067;28;20829;-73
2022/11/01 16:41:54;;;;;;;0.60;0.60;;;17.70;74.00;;;;;;5072698;28;20980;-73
2022/11/01 16:44:21;;;;;;;0.80;0.80;;;17.60;74.30;;;;;;5073048;28;20448;-74
2022/11/01 16:46:48;;;;;;;0.70;0.70;;;17.50;74.60;;;;;;5073379;28;20467;-74
2022/11/01 16:49:23;;;;;;;0.70;0.70;;;17.50;74.80;;;;;;5076955;28;20437;-74
2022/11/01 16:51:52;;;;;;;0.70;0.70;;;17.40;75.00;;;;;;5076877;28;20464;-74
2022/11/01 16:54:18;;;;;;;0.70;0.70;;;17.30;75.20;;;;;;5076983;28;20437;-74
2022/11/01 16:56:48;;;;;;;0.60;0.60;;;17.30;75.30;;;;;;5076689;28;20945;-74
2022/11/01 16:59:28;;;;;;;0.80;0.70;;;17.20;75.40;;;;;;5076463;28;20482;-74
2022/11/01 17:01:56;;;;;;;0.60;0.60;;;17.10;75.70;;;;;;5076939;28;20469;-74
2022/11/01 17:04:25;;;;;;;0.73;0.70;;;17.00;75.90;;;;;;5077500;28;20449;-74
2022/11/01 17:06:52;;;;;;;0.70;0.70;;;17.00;76.00;;;;;;5076610;28;20455;-74
2022/11/01 17:09:21;;;;;;;0.70;0.70;;;16.90;76.10;;;;;;5076644;28;20446;-73
2022/11/01 17:11:52;;;;;;;0.70;0.70;;;16.90;76.20;;;;;;5076458;28;20548;-74
2022/11/01 17:14:19;;;;;;;0.80;0.80;;;16.80;76.30;;;;;;5076452;28;20430;-74
2022/11/01 17:16:47;;;;;;;0.80;0.80;;;16.80;76.30;;;;;;5076382;28;20453;-74